createdAt,value
2022-10-01T00:02:16.357Z,17.85
2022-10-01T00:04:46.646Z,17.88
2022-10-01T00:07:17.125Z,17.98
2022-10-01T00:09:48.148Z,17.99
2022-10-01T00:12:18.171Z,18.02
2022-10-01T00:14:48.087Z,17.95
2022-10-01T00:17:18.447Z,17.97
2022-10-01T00:19:48.714Z,18.01
2022-10-01T00:22:20.204Z,18.02
2022-10-01T00:24:50.623Z,18.06
2022-10-01T00:27:20.506Z,18.08
2022-10-01T00:29:50.412Z,18.08
2022-10-01T00:32:20.822Z,18.06
2022-10-01T00:34:50.854Z,18.05
2022-10-01T00:37:21.369Z,18.08
2022-10-01T00:39:51.136Z,18.04
2022-10-01T00:42:23.258Z,18.08
2022-10-01T00:44:55.216Z,18.08
2022-10-01T00:47:41.217Z,18.06
2022-10-01T00:50:19.673Z,18.05
2022-10-01T00:52:54.140Z,18.05
2022-10-01T00:55:47.202Z,18.05
2022-10-01T00:58:17.816Z,18.02
2022-10-01T01:00:48.044Z,18.04
2022-10-01T01:03:18.736Z,18.06
2022-10-01T01:05:51.336Z,18.05
2022-10-01T01:08:22.337Z,18.05
2022-10-01T01:11:14.897Z,17.99
2022-10-01T01:14:19.399Z,17.98
2022-10-01T01:17:03.849Z,17.98
2022-10-01T01:20:17.381Z,18.02
2022-10-01T01:23:17.650Z,18.01
2022-10-01T01:26:00.262Z,17.97
2022-10-01T01:28:41.169Z,17.99
2022-10-01T01:31:24.361Z,17.98
2022-10-01T01:33:56.355Z,18.01
2022-10-01T01:36:34.116Z,17.97
2022-10-01T01:39:08.822Z,17.95
2022-10-01T01:41:42.556Z,17.95
2022-10-01T01:44:15.749Z,17.95
2022-10-01T01:46:50.590Z,17.89
2022-10-01T01:49:22.206Z,17.82
2022-10-01T01:52:05.913Z,17.74
2022-10-01T01:54:37.578Z,17.71
2022-10-01T01:57:09.622Z,17.74
2022-10-01T01:59:40.662Z,17.77
2022-10-01T02:02:21.005Z,17.84
2022-10-01T02:05:04.696Z,17.88
2022-10-01T02:07:53.953Z,17.91
2022-10-01T02:10:36.057Z,17.91
2022-10-01T02:13:15.360Z,17.88
2022-10-01T02:16:21.346Z,17.85
2022-10-01T02:19:05.547Z,17.87
2022-10-01T02:22:08.560Z,17.85
2022-10-01T02:24:41.784Z,17.82
2022-10-01T02:27:31.835Z,17.78
2022-10-01T02:30:09.043Z,17.75
2022-10-01T02:32:42.334Z,17.73
2022-10-01T02:35:16.782Z,17.64
2022-10-01T02:37:50.458Z,17.63
2022-10-01T02:40:27.457Z,17.55
2022-10-01T02:43:05.659Z,17.47
2022-10-01T02:45:40.974Z,17.46
2022-10-01T02:48:13.594Z,17.46
2022-10-01T02:50:56.768Z,17.48
2022-10-01T02:53:44.781Z,17.47
2022-10-01T02:56:36.186Z,17.50
2022-10-01T02:59:09.401Z,17.63
2022-10-01T03:01:40.165Z,17.64
2022-10-01T03:04:11.122Z,17.60
2022-10-01T03:06:41.796Z,17.64
2022-10-01T03:09:11.626Z,17.60
2022-10-01T03:11:41.745Z,17.58
2022-10-01T03:14:12.516Z,17.57
2022-10-01T03:16:43.682Z,17.60
2022-10-01T03:19:14.201Z,17.64
2022-10-01T03:21:44.008Z,17.61
2022-10-01T03:24:13.803Z,17.61
2022-10-01T03:26:43.890Z,17.67
2022-10-01T03:29:14.446Z,17.70
2022-10-01T03:31:44.763Z,17.73
2022-10-01T03:34:15.067Z,17.73
2022-10-01T03:36:44.926Z,17.70
2022-10-01T03:39:15.471Z,17.70
2022-10-01T03:41:45.764Z,17.67
2022-10-01T03:44:16.074Z,17.57
2022-10-01T03:46:47.208Z,17.58
2022-10-01T03:49:17.200Z,17.48
2022-10-01T03:51:46.999Z,17.46
2022-10-01T03:54:17.065Z,17.48
2022-10-01T03:56:47.299Z,17.48
2022-10-01T03:59:17.493Z,17.50
2022-10-01T04:01:47.411Z,17.60
2022-10-01T04:04:17.315Z,17.63
2022-10-01T04:06:48.036Z,17.60
2022-10-01T04:09:18.039Z,17.55
2022-10-01T04:11:48.132Z,17.55
2022-10-01T04:14:17.984Z,17.54
2022-10-01T04:16:47.765Z,17.58
2022-10-01T04:19:17.579Z,17.64
2022-10-01T04:21:47.399Z,17.67
2022-10-01T04:24:17.578Z,17.66
2022-10-01T04:26:47.407Z,17.61
2022-10-01T04:29:17.613Z,17.51
2022-10-01T04:31:47.468Z,17.46
2022-10-01T04:34:17.324Z,17.37
2022-10-01T04:36:47.248Z,17.34
2022-10-01T04:39:17.128Z,17.36
2022-10-01T04:41:46.898Z,17.29
2022-10-01T04:44:16.709Z,17.29
2022-10-01T04:46:46.668Z,17.30
2022-10-01T04:49:16.450Z,17.31
2022-10-01T04:51:46.784Z,17.34
2022-10-01T04:54:16.629Z,17.40
2022-10-01T04:56:46.398Z,17.41
2022-10-01T04:59:16.173Z,17.40
2022-10-01T05:01:47.150Z,17.36
2022-10-01T05:04:17.218Z,17.26
2022-10-01T05:06:47.317Z,17.19
2022-10-01T05:09:17.336Z,17.15
2022-10-01T05:11:47.165Z,17.15
2022-10-01T05:14:17.260Z,17.09
2022-10-01T05:16:47.849Z,17.15
2022-10-01T05:19:18.452Z,17.09
2022-10-01T05:21:48.181Z,17.08
2022-10-01T05:24:18.351Z,17.10
2022-10-01T05:26:48.169Z,17.10
2022-10-01T05:29:19.829Z,17.09
2022-10-01T05:31:50.595Z,17.05
2022-10-01T05:34:20.616Z,17.09
2022-10-01T05:36:51.429Z,17.08
2022-10-01T05:39:21.700Z,17.08
2022-10-01T05:41:52.052Z,17.16
2022-10-01T05:44:22.240Z,17.19
2022-10-01T05:46:52.058Z,17.27
2022-10-01T05:49:22.300Z,17.26
2022-10-01T05:51:52.072Z,17.24
2022-10-01T05:54:25.954Z,17.16
2022-10-01T05:56:57.661Z,17.15
2022-10-01T05:59:31.588Z,17.15
2022-10-01T06:02:02.524Z,17.15
2022-10-01T06:04:34.057Z,17.22
2022-10-01T06:07:07.239Z,17.27
2022-10-01T06:09:37.409Z,17.31
2022-10-01T06:12:12.396Z,17.24
2022-10-01T06:14:44.497Z,17.20
2022-10-01T06:17:14.534Z,17.22
2022-10-01T06:19:45.510Z,17.19
2022-10-01T06:22:15.610Z,17.10
2022-10-01T06:24:45.422Z,17.20
2022-10-01T06:27:16.143Z,17.22
2022-10-01T06:29:47.056Z,17.24
2022-10-01T06:32:20.851Z,17.20
2022-10-01T06:34:51.048Z,17.09
2022-10-01T06:37:20.790Z,17.02
2022-10-01T06:39:50.549Z,16.99
2022-10-01T06:42:20.306Z,16.90
2022-10-01T06:44:50.504Z,16.90
2022-10-01T06:47:20.350Z,16.93
2022-10-01T06:49:50.580Z,16.89
2022-10-01T06:52:38.239Z,16.90
2022-10-01T06:55:13.104Z,16.98
2022-10-01T06:57:45.963Z,17.05
2022-10-01T07:00:17.712Z,17.00
2022-10-01T07:02:48.650Z,16.98
2022-10-01T07:05:19.017Z,16.99
2022-10-01T07:07:50.304Z,17.08
2022-10-01T07:10:22.088Z,17.09
2022-10-01T07:12:52.811Z,17.10
2022-10-01T07:15:24.450Z,17.08
2022-10-01T07:17:54.984Z,17.10
2022-10-01T07:20:25.479Z,17.13
2022-10-01T07:23:02.221Z,17.12
2022-10-01T07:25:32.792Z,17.13
2022-10-01T07:28:05.856Z,17.13
2022-10-01T07:30:37.720Z,17.16
2022-10-01T07:33:07.713Z,17.13
2022-10-01T07:35:39.469Z,17.05
2022-10-01T07:38:09.920Z,16.96
2022-10-01T07:40:40.674Z,16.93
2022-10-01T07:43:11.241Z,16.98
2022-10-01T07:45:41.524Z,16.93
2022-10-01T07:48:11.811Z,16.89
2022-10-01T07:50:44.008Z,16.88
2022-10-01T07:53:14.934Z,16.89
2022-10-01T07:55:45.965Z,16.88
2022-10-01T07:58:16.603Z,16.90
2022-10-01T08:00:46.762Z,16.90
2022-10-01T08:03:16.594Z,16.88
2022-10-01T08:05:47.672Z,16.83
2022-10-01T08:08:17.968Z,16.75
2022-10-01T08:10:48.457Z,16.72
2022-10-01T08:13:19.481Z,16.71
2022-10-01T08:15:54.840Z,16.69
2022-10-01T08:18:26.607Z,16.59
2022-10-01T08:20:58.131Z,16.55
2022-10-01T08:23:28.079Z,16.52
2022-10-01T08:26:07.383Z,16.49
2022-10-01T08:28:38.060Z,16.49
2022-10-01T08:31:10.266Z,16.44
2022-10-01T08:33:41.059Z,16.48
2022-10-01T08:36:11.053Z,16.48
2022-10-01T08:38:41.521Z,16.48
2022-10-01T08:41:33.101Z,16.45
2022-10-01T08:44:03.972Z,16.51
2022-10-01T08:46:38.716Z,16.49
2022-10-01T08:49:28.316Z,16.45
2022-10-01T08:52:19.145Z,16.37
2022-10-01T08:55:01.369Z,16.38
2022-10-01T08:57:41.960Z,16.38
2022-10-01T09:00:19.952Z,16.37
2022-10-01T09:02:52.416Z,16.31
2022-10-01T09:05:35.919Z,16.34
2022-10-01T09:08:27.089Z,16.32
2022-10-01T09:11:09.113Z,16.32
2022-10-01T09:14:00.957Z,16.31
2022-10-01T09:17:02.186Z,16.31
2022-10-01T09:20:05.890Z,16.31
2022-10-01T09:22:43.441Z,16.30
2022-10-01T09:25:15.870Z,16.30
2022-10-01T09:27:46.018Z,16.30
2022-10-01T09:30:26.108Z,16.27
2022-10-01T09:33:17.230Z,16.25
2022-10-01T09:35:55.965Z,16.24
2022-10-01T09:38:42.817Z,16.21
2022-10-01T09:41:14.054Z,16.25
2022-10-01T09:43:46.196Z,16.25
2022-10-01T09:46:18.734Z,16.25
2022-10-01T09:49:04.758Z,16.27
2022-10-01T09:51:40.791Z,16.31
2022-10-01T09:54:35.183Z,16.25
2022-10-01T09:57:15.378Z,16.32
2022-10-01T10:00:02.995Z,16.54
2022-10-01T10:02:50.904Z,16.55
2022-10-01T10:05:31.835Z,16.62
2022-10-01T10:08:29.065Z,16.57
2022-10-01T10:11:04.812Z,16.57
2022-10-01T10:13:40.275Z,16.51
2022-10-01T10:16:28.002Z,16.48
2022-10-01T10:19:03.444Z,16.45
2022-10-01T10:21:37.588Z,16.51
2022-10-01T10:24:23.320Z,16.49
2022-10-01T10:27:01.350Z,16.51
2022-10-01T10:29:36.832Z,16.58
2022-10-01T10:32:28.111Z,16.64
2022-10-01T10:35:02.923Z,16.68
2022-10-01T10:37:42.069Z,16.69
2022-10-01T10:40:29.967Z,16.80
2022-10-01T10:43:01.557Z,16.80
2022-10-01T10:45:39.883Z,16.88
2022-10-01T10:48:18.220Z,16.92
2022-10-01T10:50:48.693Z,17.05
2022-10-01T10:53:27.891Z,17.08
2022-10-01T10:56:03.533Z,17.22
2022-10-01T10:58:41.472Z,17.12
2022-10-01T11:01:19.205Z,17.08
2022-10-01T11:03:59.867Z,17.03
2022-10-01T11:06:31.692Z,17.02
2022-10-01T11:09:09.426Z,17.05
2022-10-01T11:11:55.475Z,17.03
2022-10-01T11:15:07.987Z,17.10
2022-10-01T11:18:00.083Z,17.12
2022-10-01T11:20:53.031Z,17.18
2022-10-01T11:23:54.905Z,17.23
2022-10-01T11:26:43.351Z,17.31
2022-10-01T11:29:42.194Z,17.37
2022-10-01T11:32:25.512Z,17.44
2022-10-01T11:35:36.840Z,17.70
2022-10-01T12:15:21.207Z,19.12
2022-10-01T12:18:29.867Z,19.14
2022-10-01T12:21:04.266Z,19.24
2022-10-01T12:23:50.111Z,19.29
2022-10-01T12:26:42.721Z,19.56
2022-10-01T12:29:26.782Z,19.70
2022-10-01T12:32:08.941Z,20.09
2022-10-01T12:34:38.918Z,20.51
2022-10-01T12:37:41.172Z,22.43
2022-10-01T12:40:29.129Z,22.76
2022-10-01T12:43:17.576Z,23.40
2022-10-01T12:46:07.667Z,23.51
2022-10-01T12:48:48.688Z,23.18
2022-10-01T12:51:38.501Z,22.79
2022-10-01T12:54:27.338Z,22.39
2022-10-01T12:57:25.805Z,23.28
2022-10-01T13:00:17.904Z,25.14
2022-10-01T13:03:00.333Z,26.59
2022-10-01T13:06:01.864Z,27.27
2022-10-01T13:08:34.693Z,26.99
2022-10-01T13:11:13.051Z,27.30
2022-10-01T13:13:45.028Z,27.80
2022-10-01T13:16:56.780Z,29.04
2022-10-01T13:19:37.371Z,29.03
2022-10-01T13:22:25.664Z,28.31
2022-10-01T13:25:19.396Z,26.56
2022-10-01T13:28:13.354Z,27.30
2022-10-01T13:31:03.801Z,25.59
2022-10-01T13:33:37.752Z,26.27
2022-10-01T13:36:09.376Z,27.64
2022-10-01T13:38:39.979Z,28.95
2022-10-01T13:41:28.474Z,27.48
2022-10-01T13:44:27.769Z,26.14
2022-10-01T13:47:09.395Z,24.33
2022-10-01T13:49:42.364Z,24.19
2022-10-01T13:52:21.642Z,23.96
2022-10-01T13:54:55.533Z,23.76
2022-10-01T13:57:36.440Z,23.63
2022-10-01T14:00:10.071Z,24.77
2022-10-01T14:03:06.808Z,24.88
2022-10-01T14:05:43.818Z,24.95
2022-10-01T14:08:36.730Z,26.14
2022-10-01T14:11:38.057Z,26.01
2022-10-01T14:14:54.653Z,25.90
2022-10-01T14:17:29.572Z,26.99
2022-10-01T14:20:01.737Z,27.17
2022-10-01T14:22:41.638Z,27.51
2022-10-01T14:25:22.302Z,26.34
2022-10-01T14:28:24.304Z,24.26
2022-10-01T14:31:06.751Z,25.90
2022-10-01T14:33:45.818Z,28.74
2022-10-01T14:36:35.828Z,29.87
2022-10-01T14:39:19.223Z,29.21
2022-10-01T14:41:52.111Z,26.04
2022-10-01T14:44:32.768Z,26.08
2022-10-01T14:47:13.922Z,28.35
2022-10-01T14:49:44.151Z,29.39
2022-10-01T14:52:29.674Z,29.86
2022-10-01T14:55:02.959Z,29.41
2022-10-01T14:57:45.434Z,29.55
2022-10-01T15:00:21.538Z,28.83
2022-10-01T15:03:04.675Z,29.19
2022-10-01T15:05:37.109Z,27.03
2022-10-01T15:08:45.776Z,28.36
2022-10-01T15:11:38.127Z,28.87
2022-10-01T15:14:25.921Z,30.28
2022-10-01T15:16:56.326Z,31.00
2022-10-01T15:19:26.633Z,32.56
2022-10-01T15:21:59.257Z,32.65
2022-10-01T15:24:50.223Z,31.10
2022-10-01T15:27:23.148Z,28.93
2022-10-01T15:29:56.930Z,26.90
2022-10-01T15:32:29.266Z,27.13
2022-10-01T15:35:02.835Z,29.34
2022-10-01T15:37:37.447Z,30.02
2022-10-01T15:40:21.516Z,30.28
2022-10-01T15:43:37.939Z,26.20
2022-10-01T15:46:13.666Z,25.12
2022-10-01T15:48:44.817Z,26.51
2022-10-01T15:51:27.705Z,28.86
2022-10-01T15:54:09.704Z,28.01
2022-10-01T15:56:43.231Z,30.44
2022-10-01T15:59:21.197Z,29.89
2022-10-01T16:01:51.918Z,27.59
2022-10-01T16:04:23.193Z,26.29
2022-10-01T16:06:54.753Z,25.47
2022-10-01T16:09:28.910Z,24.98
2022-10-01T16:12:11.992Z,26.31
2022-10-01T16:14:45.245Z,28.49
2022-10-01T16:17:24.497Z,30.25
2022-10-01T16:20:22.911Z,30.91
2022-10-01T16:22:53.121Z,31.13
2022-10-01T16:25:26.315Z,29.07
2022-10-01T16:28:05.491Z,26.96
2022-10-01T16:30:35.955Z,26.04
2022-10-01T16:33:07.241Z,26.95
2022-10-01T16:35:40.819Z,29.96
2022-10-01T16:38:11.566Z,30.71
2022-10-01T16:40:49.066Z,32.24
2022-10-01T16:43:26.261Z,31.30
2022-10-01T16:45:58.860Z,31.22
2022-10-01T16:48:30.499Z,30.04
2022-10-01T16:51:00.557Z,27.41
2022-10-01T16:53:30.764Z,26.86
2022-10-01T16:56:01.685Z,27.94
2022-10-01T16:58:31.918Z,29.42
2022-10-01T17:01:07.811Z,29.86
2022-10-01T17:03:38.137Z,29.76
2022-10-01T17:06:08.457Z,29.87
2022-10-01T17:08:39.585Z,28.42
2022-10-01T17:11:13.092Z,27.94
2022-10-01T17:13:43.460Z,29.19
2022-10-01T17:16:13.695Z,29.53
2022-10-01T17:18:45.053Z,27.34
2022-10-01T17:21:15.868Z,26.48
2022-10-01T17:23:48.912Z,28.33
2022-10-01T17:26:23.202Z,27.41
2022-10-01T17:28:53.702Z,27.27
2022-10-01T17:31:23.615Z,27.84
2022-10-01T17:33:54.183Z,27.50
2022-10-01T17:36:24.370Z,26.27
2022-10-01T17:38:54.636Z,25.05
2022-10-01T17:41:24.492Z,24.74
2022-10-01T17:43:54.458Z,24.70
2022-10-01T17:46:24.307Z,24.65
2022-10-01T17:48:54.230Z,24.84
2022-10-01T17:51:24.953Z,27.10
2022-10-01T17:53:57.146Z,28.84
2022-10-01T17:56:27.565Z,28.25
2022-10-01T17:58:57.365Z,26.69
2022-10-01T18:01:27.694Z,27.94
2022-10-01T18:03:58.741Z,29.03
2022-10-01T18:06:31.627Z,29.10
2022-10-01T18:09:01.660Z,29.61
2022-10-01T18:11:31.951Z,30.35
2022-10-01T18:14:01.831Z,29.36
2022-10-01T18:16:33.664Z,29.43
2022-10-01T18:21:55.881Z,29.31
2022-10-01T18:24:26.689Z,29.34
2022-10-01T18:26:57.098Z,30.02
2022-10-01T18:29:29.329Z,29.58
2022-10-01T18:32:18.097Z,28.70
2022-10-01T18:34:55.628Z,29.21
2022-10-01T18:37:40.045Z,29.93
2022-10-01T18:40:18.127Z,29.65
2022-10-01T18:43:06.885Z,28.86
2022-10-01T18:45:55.000Z,29.10
2022-10-01T18:48:39.612Z,29.65
2022-10-01T18:51:37.256Z,29.56
2022-10-01T18:54:10.578Z,29.16
2022-10-01T18:56:55.783Z,28.31
2022-10-01T18:59:48.057Z,27.64
2022-10-01T19:02:56.760Z,28.40
2022-10-01T19:05:54.381Z,28.33
2022-10-01T19:08:36.550Z,27.82
2022-10-01T19:11:35.545Z,26.97
2022-10-01T19:14:17.715Z,27.53
2022-10-01T19:16:48.953Z,27.41
2022-10-01T19:19:47.967Z,27.40
2022-10-01T19:22:48.733Z,26.59
2022-10-01T19:25:29.381Z,26.42
2022-10-01T19:28:26.948Z,26.53
2022-10-01T19:31:23.260Z,26.41
2022-10-01T19:34:04.604Z,26.60
2022-10-01T19:36:41.911Z,26.82
2022-10-01T19:39:23.830Z,26.83
2022-10-01T19:42:02.826Z,26.28
2022-10-01T19:44:52.784Z,26.20
2022-10-01T19:47:42.906Z,25.67
2022-10-01T19:50:39.732Z,25.59
2022-10-01T19:53:35.047Z,25.35
2022-10-01T19:56:05.700Z,25.51
2022-10-01T19:58:36.002Z,25.53
2022-10-01T20:01:06.752Z,25.42
2022-10-01T20:03:44.102Z,25.23
2022-10-01T20:06:36.900Z,25.11
2022-10-01T20:09:10.626Z,24.85
2022-10-01T20:11:52.889Z,24.72
2022-10-01T20:15:13.655Z,24.75
2022-10-01T20:18:05.421Z,24.75
2022-10-01T20:20:41.884Z,24.68
2022-10-01T20:23:25.202Z,24.65
2022-10-01T20:26:07.509Z,24.56
2022-10-01T20:28:45.827Z,24.30
2022-10-01T20:31:18.283Z,24.16
2022-10-01T20:34:09.274Z,24.03
2022-10-01T20:36:45.143Z,23.86
2022-10-01T20:39:35.676Z,23.73
2022-10-01T20:42:06.814Z,23.66
2022-10-01T20:44:39.614Z,23.58
2022-10-01T20:47:34.533Z,23.55
2022-10-01T20:50:27.231Z,23.42
2022-10-01T20:53:23.918Z,23.30
2022-10-01T20:56:03.892Z,22.97
2022-10-01T20:58:45.630Z,22.55
2022-10-01T21:01:25.091Z,22.43
2022-10-01T21:04:02.614Z,22.21
2022-10-01T21:06:56.182Z,22.02
2022-10-01T21:09:34.254Z,21.68
2022-10-01T21:12:13.379Z,21.58
2022-10-01T21:14:50.565Z,21.46
2022-10-01T21:17:54.895Z,21.32
2022-10-01T21:21:11.685Z,21.22
2022-10-01T21:23:51.925Z,21.05
2022-10-01T21:26:36.892Z,20.85
2022-10-01T21:29:20.579Z,20.74
2022-10-01T21:32:14.964Z,20.67
2022-10-01T21:35:08.666Z,20.54
2022-10-01T21:37:44.268Z,20.30
2022-10-01T21:40:26.859Z,20.12
2022-10-01T21:43:14.188Z,19.92
2022-10-01T21:45:57.301Z,19.75
2022-10-01T21:48:37.903Z,19.63
2022-10-01T21:51:13.867Z,19.63
2022-10-01T21:54:07.595Z,19.49
2022-10-01T21:57:03.375Z,19.31
2022-10-01T22:00:15.061Z,19.18
2022-10-01T22:02:52.496Z,19.11
2022-10-01T22:05:44.260Z,18.96
2022-10-01T22:08:48.349Z,18.87
2022-10-01T22:11:24.375Z,18.76
2022-10-01T22:14:02.635Z,18.67
2022-10-01T22:17:11.643Z,18.43
2022-10-01T22:19:47.596Z,18.35
2022-10-01T22:22:33.433Z,18.32
2022-10-01T22:25:04.902Z,18.35
2022-10-01T22:27:49.144Z,18.30
2022-10-01T22:30:22.046Z,18.25
2022-10-01T22:33:03.471Z,18.15
2022-10-01T22:35:48.477Z,17.98
2022-10-01T22:38:38.691Z,17.99
2022-10-01T22:41:38.351Z,18.02
2022-10-01T22:44:21.841Z,17.89
2022-10-01T22:47:22.367Z,17.87
2022-10-01T22:50:23.862Z,17.55
2022-10-01T22:53:09.945Z,17.58
2022-10-01T22:55:55.975Z,17.67
2022-10-01T22:58:44.081Z,17.61
2022-10-01T23:01:46.735Z,17.60
2022-10-01T23:04:47.240Z,17.55
2022-10-01T23:07:40.800Z,17.44
2022-10-01T23:10:29.255Z,17.41
2022-10-01T23:13:11.522Z,17.33
2022-10-01T23:15:50.422Z,17.24
2022-10-01T23:18:38.850Z,17.16
2022-10-01T23:21:25.654Z,17.15
2022-10-01T23:24:05.054Z,17.08
2022-10-01T23:26:58.404Z,16.99
2022-10-01T23:29:44.821Z,16.95
2022-10-01T23:32:26.608Z,16.99
2022-10-01T23:35:14.318Z,17.03
2022-10-01T23:37:50.012Z,16.99
2022-10-01T23:40:23.639Z,16.98
2022-10-01T23:43:06.766Z,16.96
2022-10-01T23:45:56.399Z,16.90
2022-10-01T23:48:41.710Z,16.86
2022-10-01T23:51:14.453Z,16.86
2022-10-01T23:53:55.733Z,16.75
2022-10-01T23:56:49.924Z,16.72
2022-10-01T23:59:27.935Z,16.72
